^^
Your Local Weather - Clay, NY Station Historical Data
Daily Summary for April 23, 2017 Units:  Metric    English   Both
« Previous Day
Next Day »
Daily Weekly Monthly Yearly Custom
  High: Low: Average:
Temperature: 18.9 °C -0.6 °C 9.3 °C
Dew Point: 6 °C -1.7 °C 1.7 °C
Humidity: 93% 27% 65%
Wind Speed: 4.8km/h 0km/h 1.4km/h
Wind Gust: 12.9km/h - -
Wind- - WSW
Pressure: 1019.5 hPa 1015.1 hPa -
Precipitation: 0 mm    
Historical Graphs
 
 
Tabular Data for April 23, 2017
Time Temperature Dew Point Pressure Wind Wind Speed Wind Gust Humidity Rainfall Rate (Hourly) solar
00:00 2.1 °C 0.3 °C 1017.8 hPa Calm     88% 0 mm 0 W/m2
00:06 2 °C 0.2 °C 1017.8 hPa Calm     88% 0 mm 0 W/m2
00:12 2 °C 0.4 °C 1017.8 hPa Calm     89% 0 mm 0 W/m2
00:18 1.9 °C 0.3 °C 1017.8 hPa Calm     89% 0 mm 0 W/m2
00:24 1.9 °C 0.3 °C 1018.2 hPa Calm     89% 0 mm 0 W/m2
00:30 1.9 °C 0.3 °C 1018.2 hPa Calm     89% 0 mm 0 W/m2
00:36 1.8 °C 0.2 °C 1018.2 hPa Calm     89% 0 mm 0 W/m2
00:42 1.8 °C 0.2 °C 1018.2 hPa Calm     89% 0 mm 0 W/m2
00:48 1.7 °C 0.1 °C 1018.2 hPa Calm     89% 0 mm 0 W/m2
00:54 1.8 °C 0.2 °C 1018.2 hPa Calm     89% 0 mm 0 W/m2
01:06 1.9 °C 0.5 °C 1018.2 hPa Calm     90% 0 mm 0 W/m2
01:12 1.9 °C 0.5 °C 1018.2 hPa Calm     90% 0 mm 0 W/m2
01:18 1.9 °C 0.4 °C 1018.2 hPa Calm     90% 0 mm 0 W/m2
01:24 1.8 °C 0.4 °C 1018.2 hPa Calm     90% 0 mm 0 W/m2
01:30 1.7 °C 0.2 °C 1018.5 hPa Calm     90% 0 mm 0 W/m2
01:36 1.6 °C 0.1 °C 1018.2 hPa Calm     90% 0 mm 0 W/m2
01:42 1.5 °C 0.1 °C 1018.5 hPa Calm     90% 0 mm 0 W/m2
01:48 1.4 °C 0 °C 1018.2 hPa Calm     90% 0 mm 0 W/m2
01:54 1.4 °C -0.1 °C 1018.2 hPa Calm     90% 0 mm 0 W/m2
02:00 1.3 °C 0 °C 1018.2 hPa Calm     91% 0 mm 0 W/m2
02:12 1.2 °C -0.2 °C 1018.2 hPa Calm     91% 0 mm 0 W/m2
02:18 1.1 °C -0.2 °C 1018.2 hPa Calm     91% 0 mm 0 W/m2
02:24 1.1 °C -0.2 °C 1018.2 hPa Calm     91% 0 mm 0 W/m2
02:30 0.9 °C -0.4 °C 1017.8 hPa Calm     91% 0 mm 0 W/m2
02:36 0.8 °C -0.5 °C 1017.8 hPa Calm     91% 0 mm 0 W/m2
02:42 0.8 °C -0.5 °C 1017.8 hPa Calm     91% 0 mm 0 W/m2
02:48 0.8 °C -0.5 °C 1017.8 hPa Calm     91% 0 mm 0 W/m2
02:54 0.7 °C -0.6 °C 1017.8 hPa Calm     91% 0 mm 0 W/m2
03:00 0.8 °C -0.5 °C 1017.8 hPa Calm     91% 0 mm 0 W/m2
03:06 0.7 °C -0.6 °C 1017.8 hPa Calm     91% 0 mm 0 W/m2
03:12 0.7 °C -0.6 °C 1017.8 hPa Calm     91% 0 mm 0 W/m2
03:18 0.6 °C -0.7 °C 1017.8 hPa Calm     91% 0 mm 0 W/m2
03:24 0.5 °C -0.8 °C 1017.8 hPa Calm     91% 0 mm 0 W/m2
03:30 0.5 °C -0.8 °C 1017.8 hPa Calm     91% 0 mm 0 W/m2
03:36 0.4 °C -0.9 °C 1017.8 hPa Calm     91% 0 mm 0 W/m2
03:42 0.3 °C -0.9 °C 1017.8 hPa Calm     91% 0 mm 0 W/m2
03:48 0.3 °C -0.9 °C 1017.8 hPa Calm     91% 0 mm 0 W/m2
03:54 0.3 °C -0.8 °C 1017.8 hPa Calm     92% 0 mm 0 W/m2
04:00 0.3 °C -0.9 °C 1017.8 hPa Calm     92% 0 mm 0 W/m2
04:06 0.3 °C -0.9 °C 1017.8 hPa Calm     92% 0 mm 0 W/m2
04:12 0.3 °C -0.9 °C 1017.8 hPa Calm     92% 0 mm 0 W/m2
04:18 0.2 °C -0.9 °C 1017.8 hPa Calm     92% 0 mm 0 W/m2
04:24 0.2 °C -1 °C 1017.8 hPa Calm     92% 0 mm 0 W/m2
04:30 0.1 °C -1.1 °C 1017.8 hPa Calm     92% 0 mm 0 W/m2
04:36 0.1 °C -1.1 °C 1017.8 hPa Calm     92% 0 mm 0 W/m2
04:42 0.1 °C -1.1 °C 1017.8 hPa Calm     92% 0 mm 0 W/m2
04:48 0 °C -1.2 °C 1017.8 hPa Calm     92% 0 mm 0 W/m2
04:54 -0.1 °C -1.2 °C 1017.8 hPa Calm     92% 0 mm 0 W/m2
05:00 -0.2 °C -1.3 °C 1017.8 hPa Calm     92% 0 mm 0 W/m2
05:06 -0.1 °C -1.3 °C 1017.8 hPa Calm     92% 0 mm 0 W/m2
05:12 -0.1 °C -1.3 °C 1017.8 hPa Calm     92% 0 mm 0 W/m2
05:18 -0.2 °C -1.4 °C 1017.8 hPa Calm     92% 0 mm 0 W/m2
05:24 -0.3 °C -1.4 °C 1017.8 hPa Calm     92% 0 mm 0 W/m2
05:30 -0.4 °C -1.6 °C 1017.8 hPa Calm     92% 0 mm 0 W/m2
05:36 -0.5 °C -1.7 °C 1017.8 hPa Calm     92% 0 mm 0 W/m2
05:42 -0.6 °C -1.7 °C 1017.8 hPa Calm     92% 0 mm 0 W/m2
05:48 -0.4 °C -1.6 °C 1018.2 hPa Calm     92% 0 mm 0 W/m2
05:54 -0.4 °C -1.6 °C 1018.2 hPa Calm     92% 0 mm 0 W/m2
06:00 -0.4 °C -1.6 °C 1018.5 hPa Calm     92% 0 mm 0 W/m2
06:06 -0.4 °C -1.6 °C 1018.5 hPa Calm     92% 0 mm 0 W/m2
06:12 -0.4 °C -1.6 °C 1018.5 hPa Calm     92% 0 mm 5 W/m2
06:18 -0.5 °C -1.7 °C 1018.5 hPa Calm     92% 0 mm 7 W/m2
06:24 -0.5 °C -1.7 °C 1018.5 hPa Calm     92% 0 mm 11 W/m2
06:30 -0.4 °C -1.6 °C 1018.8 hPa Calm     92% 0 mm 12 W/m2
06:36 -0.4 °C -1.6 °C 1018.8 hPa Calm     92% 0 mm 16 W/m2
06:42 -0.2 °C -1.4 °C 1018.8 hPa Calm     92% 0 mm 23 W/m2
06:48 -0.1 °C -1.1 °C 1018.8 hPa Calm     93% 0 mm 35 W/m2
06:54 0.1 °C -1.1 °C 1018.8 hPa Calm     92% 0 mm 63 W/m2
07:00 0.5 °C -0.5 °C 1019.2 hPa Calm     93% 0 mm 100 W/m2
07:06 1.3 °C 0.3 °C 1019.2 hPa Calm     93% 0 mm 135 W/m2
07:12 2.5 °C 1.5 °C 1019.2 hPa Calm     93% 0 mm 155 W/m2
07:18 2.9 °C 1.9 °C 1019.2 hPa Calm     93% 0 mm 172 W/m2
07:24 3.2 °C 2.2 °C 1019.2 hPa Calm     93% 0 mm 186 W/m2
07:30 3.4 °C 2.4 °C 1019.5 hPa Calm     93% 0 mm 202 W/m2
07:36 3.7 °C 2.7 °C 1019.5 hPa Calm     93% 0 mm 216 W/m2
07:42 4.2 °C 3.1 °C 1019.5 hPa Calm     93% 0 mm 232 W/m2
07:48 4.4 °C 3.3 °C 1019.5 hPa Calm     93% 0 mm 248 W/m2
07:54 4.7 °C 3.7 °C 1019.5 hPa Calm     93% 0 mm 265 W/m2
08:00 4.9 °C 3.9 °C 1019.5 hPa Calm   4.8 km/h 93% 0 mm 265 W/m2
08:06 5.2 °C 4 °C 1019.5 hPa SW 1.6 km/h 4.8 km/h 92% 0 mm 272 W/m2
08:12 5.7 °C 4 °C 1019.5 hPa SSW 1.6 km/h 1.6 km/h 89% 0 mm 316 W/m2
08:18 6.1 °C 3.7 °C 1019.5 hPa SSW 1.6 km/h 6.4 km/h 85% 0 mm 294 W/m2
08:24 6.3 °C 3.7 °C 1019.5 hPa SW 1.6 km/h 3.2 km/h 83% 0 mm 297 W/m2
08:30 6.8 °C 3.6 °C 1019.5 hPa SSW 1.6 km/h 1.6 km/h 80% 0 mm 246 W/m2
08:36 7.1 °C 3.7 °C 1019.5 hPa WSW 3.2 km/h 4.8 km/h 79% 0 mm 359 W/m2
08:42 7.3 °C 3.5 °C 1019.5 hPa SW 3.2 km/h 3.2 km/h 77% 0 mm 357 W/m2
08:48 7.7 °C 4.1 °C 1019.5 hPa SW 1.6 km/h 3.2 km/h 78% 0 mm 410 W/m2
08:54 7.9 °C 3.7 °C 1019.5 hPa SSW 1.6 km/h 4.8 km/h 75% 0 mm 339 W/m2
09:00 8.1 °C 3.7 °C 1019.5 hPa SSE 1.6 km/h 3.2 km/h 74% 0 mm 413 W/m2
09:06 8.2 °C 3.7 °C 1019.5 hPa WSW 3.2 km/h 4.8 km/h 73% 0 mm 468 W/m2
09:12 8.4 °C 3.7 °C 1019.5 hPa SSW 3.2 km/h 8 km/h 72% 0 mm 506 W/m2
09:18 8.7 °C 3.7 °C 1019.5 hPa SSW 1.6 km/h 8 km/h 71% 0 mm 531 W/m2
09:24 9.1 °C 4.1 °C 1019.5 hPa Calm   1.6 km/h 71% 0 mm 550 W/m2
09:36 9.4 °C 3.8 °C 1019.5 hPa WSW 1.6 km/h 3.2 km/h 68% 0 mm 585 W/m2
09:42 9.7 °C 4.1 °C 1019.5 hPa West 1.6 km/h 1.6 km/h 68% 0 mm 606 W/m2
09:48 10 °C 3.9 °C 1019.5 hPa SSW 1.6 km/h 1.6 km/h 66% 0 mm 622 W/m2
09:54 10.3 °C 4.1 °C 1019.5 hPa WSW 1.6 km/h 1.6 km/h 65% 0 mm 640 W/m2
10:00 10.6 °C 3.6 °C 1019.5 hPa SW 1.6 km/h 1.6 km/h 62% 0 mm 657 W/m2
10:06 11 °C 4.4 °C 1019.5 hPa NW 1.6 km/h 4.8 km/h 64% 0 mm 671 W/m2
10:12 10.9 °C 3.9 °C 1019.5 hPa SSE 1.6 km/h 3.2 km/h 62% 0 mm 691 W/m2
10:18 11.1 °C 4.5 °C 1019.5 hPa SSW 3.2 km/h 3.2 km/h 64% 0 mm 708 W/m2
10:24 11.7 °C 4.2 °C 1019.5 hPa WSW 1.6 km/h 3.2 km/h 60% 0 mm 721 W/m2
10:30 11.5 °C 3.8 °C 1019.5 hPa South 1.6 km/h 1.6 km/h 59% 0 mm 737 W/m2
10:36 11.5 °C 4.7 °C 1019.2 hPa South 1.6 km/h 6.4 km/h 63% 0 mm 752 W/m2
10:42 12 °C 4.7 °C 1019.2 hPa NNW 3.2 km/h 8 km/h 61% 0 mm 768 W/m2
10:48 12.2 °C 5.4 °C 1019.2 hPa South 3.2 km/h 12.9 km/h 63% 0 mm 782 W/m2
10:54 12.6 °C 5.7 °C 1019.2 hPa SW 3.2 km/h 12.9 km/h 63% 0 mm 793 W/m2
11:00 12.2 °C 3.7 °C 1019.2 hPa SSW 3.2 km/h 3.2 km/h 56% 0 mm 803 W/m2
11:06 12.6 °C 5.1 °C 1018.8 hPa South 3.2 km/h 8 km/h 60% 0 mm 817 W/m2
11:12 12.6 °C 4.6 °C 1018.8 hPa SE 3.2 km/h 3.2 km/h 58% 0 mm 826 W/m2
11:18 12.9 °C 4.1 °C 1018.8 hPa SW 3.2 km/h 4.8 km/h 55% 0 mm 837 W/m2
11:24 13.7 °C 5.3 °C 1018.8 hPa WNW 1.6 km/h 4.8 km/h 57% 0 mm 844 W/m2
11:30 14.2 °C 5 °C 1018.8 hPa WNW 1.6 km/h 4.8 km/h 54% 0 mm 851 W/m2
11:36 13.8 °C 3.6 °C 1018.8 hPa South 1.6 km/h 6.4 km/h 50% 0 mm 861 W/m2
11:42 14 °C 3.4 °C 1018.8 hPa West 1.6 km/h 1.6 km/h 49% 0 mm 867 W/m2
11:48 14.2 °C 4.4 °C 1018.8 hPa West 1.6 km/h 4.8 km/h 52% 0 mm 872 W/m2
11:54 14.4 °C 5.7 °C 1018.8 hPa WSW 1.6 km/h 4.8 km/h 56% 0 mm 877 W/m2
12:00 14.3 °C 3.1 °C 1018.5 hPa NNW 3.2 km/h 3.2 km/h 47% 0 mm 882 W/m2
12:06 14.4 °C 4.2 °C 1018.5 hPa NE 3.2 km/h 6.4 km/h 50% 0 mm 889 W/m2
12:12 14.6 °C 5.3 °C 1018.5 hPa WNW 1.6 km/h 4.8 km/h 54% 0 mm 893 W/m2
12:18 14.9 °C 3.7 °C 1018.5 hPa WNW 3.2 km/h 4.8 km/h 47% 0 mm 898 W/m2
12:24 14.9 °C 3.1 °C 1018.5 hPa WNW 3.2 km/h 3.2 km/h 45% 0 mm 900 W/m2
12:30 14.4 °C 1.7 °C 1018.5 hPa South 1.6 km/h 4.8 km/h 42% 0 mm 902 W/m2
12:36 14.7 °C 6 °C 1018.5 hPa SSE 1.6 km/h 6.4 km/h 56% 0 mm 905 W/m2
12:40 14.8 °C 1.7 °C 1018.5 hPa South 1.6 km/h 3.2 km/h 41% 0 mm 907 W/m2
12:46 14.8 °C 2.6 °C 1018.2 hPa SSW 3.2 km/h 6.4 km/h 44% 0 mm 912 W/m2
12:52 15.4 °C 4.1 °C 1018.2 hPa WSW 3.2 km/h 9.7 km/h 47% 0 mm 912 W/m2
12:58 15.4 °C 2.2 °C 1018.2 hPa NW 3.2 km/h 9.7 km/h 41% 0 mm 911 W/m2
13:04 15.7 °C 3.4 °C 1018.2 hPa WNW 3.2 km/h 4.8 km/h 44% 0 mm 912 W/m2
13:10 15.6 °C 4.3 °C 1017.8 hPa SW 3.2 km/h 3.2 km/h 47% 0 mm 911 W/m2
13:16 15.7 °C 4.4 °C 1017.8 hPa South 3.2 km/h 8 km/h 47% 0 mm 914 W/m2
13:22 15.8 °C 2.6 °C 1017.8 hPa WNW 4.8 km/h 6.4 km/h 41% 0 mm 914 W/m2
13:28 16.3 °C 0.8 °C 1017.8 hPa West 3.2 km/h 6.4 km/h 35% 0 mm 909 W/m2
13:34 16.1 °C 1.3 °C 1017.8 hPa SSE 3.2 km/h 6.4 km/h 37% 0 mm 907 W/m2
13:40 15.9 °C 2 °C 1017.5 hPa NW 4.8 km/h 8 km/h 39% 0 mm 904 W/m2
13:46 16.6 °C 4.9 °C 1017.5 hPa West 3.2 km/h 8 km/h 46% 0 mm 898 W/m2
13:52 16.7 °C 2.7 °C 1017.5 hPa WNW 3.2 km/h 4.8 km/h 39% 0 mm 896 W/m2
13:58 16.6 °C 4.6 °C 1017.2 hPa WNW 3.2 km/h 4.8 km/h 45% 0 mm 893 W/m2
14:04 16.4 °C 3.2 °C 1017.2 hPa SW 3.2 km/h 6.4 km/h 41% 0 mm 884 W/m2
14:12 16.7 °C 2.6 °C 1017.2 hPa SSW 3.2 km/h 6.4 km/h 39% 0 mm 877 W/m2
14:18 17.1 °C 3.3 °C 1017.2 hPa WNW 3.2 km/h 12.9 km/h 40% 0 mm 872 W/m2
14:24 17.1 °C 3.7 °C 1016.8 hPa NNW 3.2 km/h 6.4 km/h 41% 0 mm 868 W/m2
14:30 17.4 °C 4.1 °C 1016.8 hPa NNW 1.6 km/h 1.6 km/h 41% 0 mm 858 W/m2
14:36 17.4 °C 0.9 °C 1016.8 hPa SW 3.2 km/h 6.4 km/h 33% 0 mm 854 W/m2
14:42 16.9 °C 0.6 °C 1016.8 hPa SW 4.8 km/h 8 km/h 33% 0 mm 846 W/m2
14:48 17.6 °C 0.3 °C 1016.5 hPa WSW 4.8 km/h 8 km/h 31% 0 mm 837 W/m2
14:54 17.2 °C -1.1 °C 1016.5 hPa SSE 4.8 km/h 4.8 km/h 29% 0 mm 824 W/m2
15:00 17.3 °C 2.1 °C 1016.1 hPa NW 3.2 km/h 3.2 km/h 36% 0 mm 814 W/m2
15:06 18.1 °C 2.7 °C 1016.1 hPa NW 3.2 km/h 6.4 km/h 36% 0 mm 807 W/m2
15:12 17.9 °C 2.6 °C 1016.1 hPa NNW 4.8 km/h 6.4 km/h 36% 0 mm 793 W/m2
15:18 17.9 °C 0.1 °C 1016.1 hPa WNW 4.8 km/h 6.4 km/h 30% 0 mm 782 W/m2
15:24 17.8 °C 0.9 °C 1016.1 hPa WNW 3.2 km/h 4.8 km/h 32% 0 mm 770 W/m2
15:30 18.2 °C 1.6 °C 1016.1 hPa WNW 3.2 km/h 3.2 km/h 33% 0 mm 758 W/m2
15:36 17.8 °C 2.2 °C 1016.1 hPa NNW 4.8 km/h 6.4 km/h 35% 0 mm 742 W/m2
15:42 18.2 °C 1.7 °C 1016.1 hPa WSW 4.8 km/h 4.8 km/h 33% 0 mm 731 W/m2
15:48 18.4 °C 1 °C 1015.8 hPa NW 3.2 km/h 4.8 km/h 31% 0 mm 715 W/m2
15:54 18.1 °C -0.8 °C 1015.8 hPa WNW 3.2 km/h 6.4 km/h 28% 0 mm 703 W/m2
16:00 18.1 °C 0.2 °C 1015.8 hPa South 3.2 km/h 3.2 km/h 30% 0 mm 691 W/m2
16:06 18.8 °C 1.3 °C 1015.8 hPa WSW 3.2 km/h 6.4 km/h 31% 0 mm 673 W/m2
16:12 18.6 °C 0.2 °C 1015.8 hPa SW 4.8 km/h 4.8 km/h 29% 0 mm 659 W/m2
16:18 18.4 °C 1.4 °C 1015.5 hPa WSW 3.2 km/h 4.8 km/h 32% 0 mm 643 W/m2
16:24 18.3 °C 0.4 °C 1015.5 hPa West 3.2 km/h 8 km/h 30% 0 mm 628 W/m2
16:30 18.3 °C 2.6 °C 1015.5 hPa WSW 4.8 km/h 4.8 km/h 35% 0 mm 612 W/m2
16:36 18.7 °C 4.1 °C 1015.5 hPa NW 3.2 km/h 4.8 km/h 38% 0 mm 594 W/m2
16:42 18.9 °C 0.9 °C 1015.1 hPa WSW 1.6 km/h 6.4 km/h 30% 0 mm 577 W/m2
16:48 18.8 °C 2.2 °C 1015.1 hPa West 4.8 km/h 6.4 km/h 33% 0 mm 559 W/m2
16:54 18.6 °C 1.6 °C 1015.1 hPa SSW 4.8 km/h 8 km/h 32% 0 mm 540 W/m2
17:00 18.2 °C 1.7 °C 1015.5 hPa SW 4.8 km/h 6.4 km/h 33% 0 mm 520 W/m2
17:06 18.3 °C 1.3 °C 1015.5 hPa NW 4.8 km/h 6.4 km/h 32% 0 mm 503 W/m2
17:12 18.7 °C -0.2 °C 1015.5 hPa WNW 3.2 km/h 4.8 km/h 28% 0 mm 485 W/m2
17:18 18.7 °C -0.2 °C 1015.5 hPa West 3.2 km/h 4.8 km/h 28% 0 mm 466 W/m2
17:24 18.8 °C 0.9 °C 1015.5 hPa WSW 3.2 km/h 12.9 km/h 30% 0 mm 450 W/m2
17:30 18.9 °C -0.1 °C 1015.8 hPa SW 4.8 km/h 11.3 km/h 28% 0 mm 432 W/m2
17:36 18.9 °C -0.1 °C 1015.8 hPa WSW 4.8 km/h 11.3 km/h 28% 0 mm 327 W/m2
17:42 18.9 °C 0.5 °C 1015.8 hPa NW 1.6 km/h 3.2 km/h 29% 0 mm 181 W/m2
17:48 18.8 °C -0.6 °C 1015.8 hPa WSW 3.2 km/h 6.4 km/h 27% 0 mm 283 W/m2
17:54 18.7 °C -0.2 °C 1015.8 hPa WSW 3.2 km/h 9.7 km/h 28% 0 mm 169 W/m2
18:00 18.7 °C 0.3 °C 1015.8 hPa NW 3.2 km/h 3.2 km/h 29% 0 mm 146 W/m2
18:06 18.7 °C 0.3 °C 1015.8 hPa NW 1.6 km/h 3.2 km/h 29% 0 mm 206 W/m2
18:12 18.9 °C -0.1 °C 1015.8 hPa WNW 1.6 km/h 1.6 km/h 28% 0 mm 163 W/m2
18:18 18.8 °C 0.3 °C 1015.8 hPa WNW 1.6 km/h 3.2 km/h 29% 0 mm 116 W/m2
18:24 18.5 °C -0.4 °C 1015.8 hPa WNW 3.2 km/h 6.4 km/h 28% 0 mm 56 W/m2
18:30 18.3 °C -0.6 °C 1015.8 hPa West 3.2 km/h 6.4 km/h 28% 0 mm 69 W/m2
18:36 18.3 °C 0.8 °C 1015.8 hPa West 1.6 km/h 6.4 km/h 31% 0 mm 77 W/m2
18:42 18.2 °C 0.3 °C 1015.8 hPa WNW 1.6 km/h 1.6 km/h 30% 0 mm 95 W/m2
18:48 18.1 °C -0.8 °C 1015.8 hPa WNW 1.6 km/h 1.6 km/h 28% 0 mm 109 W/m2
18:54 18.1 °C 0.7 °C 1015.8 hPa Calm   1.6 km/h 31% 0 mm 54 W/m2
19:00 17.9 °C 0.9 °C 1016.1 hPa WNW 1.6 km/h 1.6 km/h 32% 0 mm 28 W/m2
19:06 17.8 °C 0.4 °C 1016.1 hPa Calm   1.6 km/h 31% 0 mm 63 W/m2
19:12 17.6 °C -0.2 °C 1016.1 hPa Calm     30% 0 mm 63 W/m2
19:18 17.4 °C 0.1 °C 1016.1 hPa Calm     31% 0 mm 23 W/m2
19:24 17.2 °C 0.4 °C 1016.1 hPa Calm     32% 0 mm 21 W/m2
19:30 16.9 °C 0.1 °C 1016.1 hPa Calm     32% 0 mm 18 W/m2
20:46 13.3 °C 5.2 °C 1016.5 hPa Calm     58% 0 mm 0 W/m2
20:52 12.6 °C 5.3 °C 1016.1 hPa Calm     61% 0 mm 0 W/m2
20:58 11.8 °C 4.5 °C 1016.5 hPa Calm     61% 0 mm 0 W/m2
21:04 11.3 °C 3.8 °C 1016.5 hPa Calm     60% 0 mm 0 W/m2
21:10 11.1 °C 3.6 °C 1016.5 hPa Calm     60% 0 mm 0 W/m2
21:16 10.9 °C 3.7 °C 1016.5 hPa Calm     61% 0 mm 0 W/m2
21:22 10.7 °C 3.7 °C 1016.8 hPa Calm     62% 0 mm 0 W/m2
21:28 10.4 °C 3.7 °C 1016.8 hPa Calm     63% 0 mm 0 W/m2
21:34 10.2 °C 3.7 °C 1016.8 hPa Calm     64% 0 mm 0 W/m2
21:40 10.1 °C 3.6 °C 1016.8 hPa Calm     64% 0 mm 0 W/m2
21:46 9.9 °C 3.6 °C 1016.8 hPa Calm     65% 0 mm 0 W/m2
21:52 9.8 °C 3.7 °C 1016.8 hPa Calm     66% 0 mm 0 W/m2
21:58 9.6 °C 3.6 °C 1016.8 hPa Calm     66% 0 mm 0 W/m2
22:04 9.4 °C 3.6 °C 1016.8 hPa Calm     67% 0 mm 0 W/m2
22:10 9.2 °C 3.6 °C 1016.8 hPa Calm     68% 0 mm 0 W/m2
22:16 9.1 °C 3.4 °C 1016.8 hPa Calm   4.8 km/h 68% 0 mm 0 W/m2
22:22 9.1 °C 3.7 °C 1016.8 hPa NW 1.6 km/h 1.6 km/h 69% 0 mm 0 W/m2
22:28 8.9 °C 3.8 °C 1016.8 hPa Calm   1.6 km/h 70% 0 mm 0 W/m2
22:34 8.8 °C 4.1 °C 1016.8 hPa Calm     72% 0 mm 0 W/m2
22:40 8.7 °C 4.1 °C 1016.8 hPa Calm     73% 0 mm 0 W/m2
22:46 8.4 °C 4.3 °C 1016.8 hPa Calm     75% 0 mm 0 W/m2
22:52 8.3 °C 4.3 °C 1016.8 hPa Calm     76% 0 mm 0 W/m2
22:58 8.1 °C 4.1 °C 1016.8 hPa Calm     76% 0 mm 0 W/m2
23:04 7.7 °C 3.9 °C 1016.8 hPa Calm     77% 0 mm 0 W/m2
23:10 7.6 °C 3.8 °C 1016.8 hPa Calm     77% 0 mm 0 W/m2
23:16 7.4 °C 3.6 °C 1016.8 hPa Calm     77% 0 mm 0 W/m2
23:28 7.2 °C 3.6 °C 1017.2 hPa Calm     78% 0 mm 0 W/m2
23:34 7.1 °C 3.7 °C 1017.2 hPa Calm     79% 0 mm 0 W/m2
23:40 6.9 °C 3.6 °C 1017.2 hPa Calm     79% 0 mm 0 W/m2
23:46 6.8 °C 3.4 °C 1017.2 hPa Calm     79% 0 mm 0 W/m2
23:52 6.7 °C 3.5 °C 1017.2 hPa Calm     80% 0 mm 0 W/m2
23:58 6.6 °C 3.2 °C 1017.2 hPa Calm     79% 0 mm 0 W/m2
Country Meadow, Clay, NY, USA
Compliments of Weather Underground - 2 mb